createdAt,value
2017-12-20T00:01:34.133Z,13.02
2017-12-20T00:04:01.601Z,14.05
2017-12-20T00:06:29.176Z,11.07
2017-12-20T00:08:56.668Z,13.68
2017-12-20T00:11:24.188Z,13.00
2017-12-20T00:13:51.660Z,15.75
2017-12-20T00:16:19.913Z,15.75
2017-12-20T00:18:47.482Z,16.25
2017-12-20T00:21:14.932Z,15.98
2017-12-20T00:23:42.488Z,16.62
2017-12-20T00:26:09.941Z,16.83
2017-12-20T00:28:37.433Z,15.60
2017-12-20T00:31:05.661Z,15.52
2017-12-20T00:33:33.160Z,15.88
2017-12-20T00:36:01.410Z,15.82
2017-12-20T00:38:28.867Z,14.50
2017-12-20T00:40:56.425Z,14.82
2017-12-20T00:43:23.881Z,15.65
2017-12-20T00:45:51.400Z,13.35
2017-12-20T00:48:18.844Z,12.77
2017-12-20T00:50:46.353Z,13.70
2017-12-20T00:53:13.808Z,15.15
2017-12-20T00:55:41.263Z,14.20
2017-12-20T00:58:08.720Z,12.75
2017-12-20T01:00:36.281Z,12.80
2017-12-20T01:03:03.737Z,12.50
2017-12-20T01:05:31.292Z,12.85
2017-12-20T01:07:58.761Z,11.65
2017-12-20T01:10:26.225Z,10.95
2017-12-20T01:12:53.689Z,11.70
2017-12-20T01:15:21.952Z,11.10
2017-12-20T01:17:49.425Z,11.50
2017-12-20T01:20:17.649Z,11.43
2017-12-20T01:22:45.225Z,10.85
2017-12-20T01:25:12.668Z,10.73
2017-12-20T01:27:40.150Z,10.65
2017-12-20T01:30:07.609Z,11.38
2017-12-20T01:32:35.170Z,12.02
2017-12-20T01:35:02.626Z,10.02
2017-12-20T01:37:30.086Z,10.45
2017-12-20T01:39:57.540Z,11.27
2017-12-20T01:42:25.093Z,8.80
2017-12-20T01:44:52.558Z,9.45
2017-12-20T01:47:20.021Z,10.73
2017-12-20T01:49:47.560Z,9.40
2017-12-20T01:52:15.113Z,9.43
2017-12-20T01:54:42.578Z,9.05
2017-12-20T01:57:10.156Z,9.02
2017-12-20T01:59:38.379Z,8.38
2017-12-20T02:02:05.846Z,8.60
2017-12-20T02:04:33.309Z,9.43
2017-12-20T02:09:34.786Z,7.40
2017-12-20T02:12:02.248Z,8.32
2017-12-20T02:14:29.814Z,8.55
2017-12-20T02:16:57.357Z,7.47
2017-12-20T02:19:24.813Z,6.95
2017-12-20T02:21:52.276Z,7.75
2017-12-20T02:24:19.841Z,7.62
2017-12-20T02:26:47.305Z,7.57
2017-12-20T02:29:14.852Z,7.65
2017-12-20T02:31:42.342Z,7.70
2017-12-20T02:34:09.909Z,8.00
2017-12-20T02:36:37.426Z,7.85
2017-12-20T02:39:04.885Z,6.90
2017-12-20T02:41:32.345Z,8.25
2017-12-20T02:43:59.814Z,8.18
2017-12-20T02:46:28.039Z,7.50
2017-12-20T02:48:55.529Z,7.32
2017-12-20T02:51:22.985Z,7.12
2017-12-20T02:53:50.450Z,7.60
2017-12-20T02:56:17.909Z,7.82
2017-12-20T02:58:45.459Z,8.05
2017-12-20T03:01:13.024Z,7.18
2017-12-20T03:03:40.481Z,7.60
2017-12-20T03:06:08.025Z,7.03
2017-12-20T03:08:35.585Z,5.97
2017-12-20T03:11:03.147Z,8.13
2017-12-20T03:13:30.707Z,6.75
2017-12-20T03:15:58.266Z,7.18
2017-12-20T03:18:25.818Z,7.00
2017-12-20T03:20:53.283Z,7.25
2017-12-20T03:23:20.738Z,7.07
2017-12-20T03:25:48.288Z,8.50
2017-12-20T03:28:15.745Z,8.20
2017-12-20T03:30:43.310Z,7.07
2017-12-20T03:33:10.764Z,7.78
2017-12-20T03:35:39.041Z,8.98
2017-12-20T03:38:06.558Z,8.27
2017-12-20T03:40:34.053Z,7.62
2017-12-20T03:43:01.520Z,8.00
2017-12-20T03:45:28.980Z,7.70
2017-12-20T03:47:56.540Z,9.05
2017-12-20T03:50:23.990Z,9.30
2017-12-20T03:52:51.466Z,8.13
2017-12-20T03:55:19.709Z,8.50
2017-12-20T03:57:47.277Z,7.78
2017-12-20T04:00:14.755Z,8.75
2017-12-20T04:02:42.985Z,7.85
2017-12-20T04:05:10.470Z,9.30
2017-12-20T04:07:37.953Z,7.95
2017-12-20T04:10:06.181Z,8.10
2017-12-20T04:12:33.654Z,8.82
2017-12-20T04:15:01.231Z,8.48
2017-12-20T04:17:28.687Z,9.43
2017-12-20T04:19:56.162Z,7.87
2017-12-20T04:22:24.385Z,8.18
2017-12-20T04:24:51.918Z,8.63
2017-12-20T04:27:19.418Z,8.75
2017-12-20T04:29:47.040Z,8.98
2017-12-20T04:32:14.505Z,8.73
2017-12-20T04:34:41.993Z,8.70
2017-12-20T04:37:09.461Z,8.00
2017-12-20T04:39:36.925Z,9.45
2017-12-20T04:42:05.150Z,9.07
2017-12-20T04:44:32.607Z,8.50
2017-12-20T04:47:00.086Z,8.73
2017-12-20T04:49:27.549Z,8.80
2017-12-20T04:51:55.105Z,10.00
2017-12-20T04:54:22.566Z,9.88
2017-12-20T04:56:50.121Z,9.90
2017-12-20T04:59:17.681Z,10.57
2017-12-20T05:01:45.157Z,10.32
2017-12-20T05:04:13.406Z,9.88
2017-12-20T05:06:40.973Z,10.57
2017-12-20T05:09:09.221Z,11.65
2017-12-20T05:11:36.685Z,18.50
2017-12-20T05:14:04.220Z,17.37
2017-12-20T05:16:31.697Z,15.95
2017-12-20T05:18:59.182Z,10.00
2017-12-20T05:21:26.642Z,11.38
2017-12-20T05:23:55.824Z,10.70
2017-12-20T05:26:23.277Z,9.93
2017-12-20T05:28:50.747Z,9.32
2017-12-20T05:31:18.203Z,9.32
2017-12-20T05:33:45.665Z,9.35
2017-12-20T05:36:13.221Z,10.43
2017-12-20T05:38:40.682Z,9.13
2017-12-20T05:41:08.228Z,9.82
2017-12-20T05:43:35.694Z,9.35
2017-12-20T05:46:03.244Z,9.50
2017-12-20T05:48:30.729Z,10.68
2017-12-20T05:50:58.982Z,10.18
2017-12-20T05:53:26.455Z,10.23
2017-12-20T05:55:55.400Z,9.10
2017-12-20T05:58:22.853Z,9.68
2017-12-20T06:00:50.341Z,9.50
2017-12-20T06:03:17.797Z,10.77
2017-12-20T06:05:45.265Z,10.27
2017-12-20T06:08:12.722Z,10.02
2017-12-20T06:10:40.270Z,10.32
2017-12-20T06:13:07.742Z,11.07
2017-12-20T06:15:35.990Z,9.70
2017-12-20T06:18:03.453Z,10.00
2017-12-20T06:20:32.449Z,9.45
2017-12-20T06:23:00.671Z,9.95
2017-12-20T06:25:28.128Z,10.75
2017-12-20T06:27:55.755Z,10.38
2017-12-20T06:30:23.221Z,10.45
2017-12-20T06:32:51.470Z,9.43
2017-12-20T06:35:18.987Z,9.27
2017-12-20T06:37:46.489Z,9.55
2017-12-20T06:40:13.948Z,9.50
2017-12-20T06:42:41.441Z,10.45
2017-12-20T06:45:08.962Z,10.15
2017-12-20T06:47:36.426Z,10.00
2017-12-20T06:50:03.994Z,9.65
2017-12-20T06:52:32.217Z,9.85
2017-12-20T06:54:59.680Z,8.60
2017-12-20T06:57:27.165Z,8.88
2017-12-20T06:59:54.621Z,10.30
2017-12-20T07:02:22.101Z,9.80
2017-12-20T07:04:50.349Z,9.32
2017-12-20T07:07:18.010Z,10.40
2017-12-20T07:09:45.519Z,9.80
2017-12-20T07:12:13.031Z,8.90
2017-12-20T07:14:40.598Z,10.40
2017-12-20T07:17:09.561Z,9.68
2017-12-20T07:19:37.024Z,8.65
2017-12-20T07:22:04.498Z,9.73
2017-12-20T07:24:32.728Z,9.18
2017-12-20T07:27:00.281Z,10.20
2017-12-20T07:29:27.744Z,10.65
2017-12-20T07:31:55.236Z,9.60
2017-12-20T07:34:24.219Z,9.00
2017-12-20T07:36:51.697Z,10.43
2017-12-20T07:39:19.269Z,9.05
2017-12-20T07:41:47.580Z,9.05
2017-12-20T07:44:15.033Z,9.30
2017-12-20T07:46:42.505Z,8.95
2017-12-20T07:49:09.957Z,9.13
2017-12-20T07:51:37.421Z,8.95
2017-12-20T07:54:04.904Z,9.45
2017-12-20T07:56:32.370Z,9.00
2017-12-20T07:59:00.663Z,10.25
2017-12-20T08:01:28.973Z,10.05
2017-12-20T08:03:56.432Z,7.82
2017-12-20T08:06:23.973Z,9.07
2017-12-20T08:08:51.442Z,9.25
2017-12-20T08:11:18.938Z,9.20
2017-12-20T08:13:46.506Z,9.27
2017-12-20T08:16:14.061Z,9.90
2017-12-20T08:18:41.523Z,9.15
2017-12-20T08:21:08.980Z,9.43
2017-12-20T08:23:36.432Z,8.13
2017-12-20T08:26:03.896Z,9.38
2017-12-20T08:28:31.395Z,9.10
2017-12-20T08:30:58.901Z,8.65
2017-12-20T08:33:26.461Z,8.52
2017-12-20T08:35:54.021Z,9.70
2017-12-20T08:38:21.489Z,8.85
2017-12-20T08:40:49.714Z,9.43
2017-12-20T08:43:17.215Z,9.23
2017-12-20T08:45:44.674Z,8.68
2017-12-20T08:48:12.137Z,8.23
2017-12-20T08:50:39.615Z,9.13
2017-12-20T08:53:07.845Z,8.52
2017-12-20T08:55:35.309Z,8.20
2017-12-20T08:58:02.869Z,9.05
2017-12-20T09:00:30.377Z,8.60
2017-12-20T09:02:57.890Z,8.98
2017-12-20T09:05:25.446Z,9.77
2017-12-20T09:07:52.959Z,9.75
2017-12-20T09:10:20.519Z,10.55
2017-12-20T09:12:52.949Z,10.00
2017-12-20T09:15:20.502Z,10.18
2017-12-20T09:17:48.049Z,8.68
2017-12-20T09:20:15.609Z,10.82
2017-12-20T09:22:43.173Z,9.10
2017-12-20T09:25:10.733Z,9.77
2017-12-20T09:27:38.200Z,10.63
2017-12-20T09:30:05.749Z,10.30
2017-12-20T09:32:33.975Z,9.65
2017-12-20T09:35:01.482Z,10.85
2017-12-20T09:37:28.946Z,12.15
2017-12-20T09:39:57.173Z,10.55
2017-12-20T09:42:24.670Z,10.48
2017-12-20T09:44:53.638Z,11.23
2017-12-20T09:47:21.110Z,10.68
2017-12-20T09:49:48.669Z,10.38
2017-12-20T09:52:16.229Z,11.35
2017-12-20T09:54:43.701Z,12.20
2017-12-20T09:57:11.246Z,11.93
2017-12-20T09:59:38.713Z,11.77
2017-12-20T10:02:06.974Z,10.77
2017-12-20T10:04:34.813Z,12.13
2017-12-20T10:07:02.310Z,12.18
2017-12-20T10:09:29.867Z,11.75
2017-12-20T10:11:57.428Z,12.02
2017-12-20T10:14:24.973Z,11.07
2017-12-20T10:16:52.437Z,10.77
2017-12-20T10:19:19.965Z,11.07
2017-12-20T10:21:47.444Z,12.85
2017-12-20T10:24:14.933Z,12.23
2017-12-20T10:26:43.217Z,12.43
2017-12-20T10:29:11.467Z,14.13
2017-12-20T10:31:38.935Z,11.15
2017-12-20T10:34:07.190Z,11.40
2017-12-20T10:36:34.804Z,11.77
2017-12-20T10:39:02.265Z,11.68
2017-12-20T10:41:29.891Z,11.35
2017-12-20T10:43:58.113Z,11.35
2017-12-20T10:46:25.581Z,10.95
2017-12-20T10:48:53.101Z,10.90
2017-12-20T10:51:20.572Z,11.50
2017-12-20T10:53:48.029Z,11.52
2017-12-20T10:56:15.525Z,11.20
2017-12-20T10:58:43.084Z,13.73
2017-12-20T11:01:10.650Z,12.25
2017-12-20T11:03:38.150Z,10.15
2017-12-20T11:06:05.604Z,11.10
2017-12-20T11:08:33.117Z,11.23
2017-12-20T11:11:00.584Z,10.70
2017-12-20T11:13:28.816Z,11.15
2017-12-20T11:15:56.350Z,10.85
2017-12-20T11:18:23.805Z,12.37
2017-12-20T11:20:51.378Z,11.93
2017-12-20T11:23:18.985Z,12.35
2017-12-20T11:25:46.494Z,10.70
2017-12-20T11:28:13.997Z,12.18
2017-12-20T11:30:41.556Z,10.73
2017-12-20T11:33:09.021Z,10.55
2017-12-20T11:35:36.568Z,12.68
2017-12-20T11:38:04.124Z,11.18
2017-12-20T11:40:31.640Z,12.20
2017-12-20T11:42:59.200Z,11.48
2017-12-20T11:45:26.656Z,10.82
2017-12-20T11:47:54.173Z,9.70
2017-12-20T11:50:21.725Z,11.85
2017-12-20T11:52:49.273Z,11.30
2017-12-20T11:55:16.756Z,10.50
2017-12-20T11:57:45.000Z,10.30
2017-12-20T12:00:12.461Z,11.05
2017-12-20T12:02:40.038Z,10.50
2017-12-20T12:05:08.409Z,11.70
2017-12-20T12:07:35.914Z,12.30
2017-12-20T12:10:03.369Z,10.13
2017-12-20T12:12:30.865Z,10.15
2017-12-20T12:14:58.329Z,10.70
2017-12-20T12:17:25.944Z,8.35
2017-12-20T12:19:53.405Z,10.23
2017-12-20T12:22:20.907Z,8.73
2017-12-20T12:24:48.368Z,9.80
2017-12-20T12:27:15.933Z,10.35
2017-12-20T12:29:44.195Z,10.23
2017-12-20T12:32:11.664Z,11.15
2017-12-20T12:34:39.132Z,9.65
2017-12-20T12:37:07.349Z,9.63
2017-12-20T12:39:34.809Z,9.90
2017-12-20T12:42:02.276Z,9.38
2017-12-20T12:44:29.748Z,11.98
2017-12-20T12:46:57.349Z,10.48
2017-12-20T12:49:25.576Z,9.85
2017-12-20T12:51:53.202Z,11.00
2017-12-20T12:54:20.674Z,11.35
2017-12-20T12:56:48.217Z,9.68
2017-12-20T12:59:15.879Z,11.55
2017-12-20T13:01:43.345Z,11.43
2017-12-20T13:04:10.812Z,12.05
2017-12-20T13:06:38.298Z,10.25
2017-12-20T13:09:05.882Z,11.27
2017-12-20T13:11:34.124Z,10.43
2017-12-20T13:14:01.642Z,11.10
2017-12-20T13:16:29.095Z,10.95
2017-12-20T13:18:56.569Z,12.80
2017-12-20T13:21:24.047Z,10.65
2017-12-20T13:23:51.512Z,11.23
2017-12-20T13:26:19.072Z,9.85
2017-12-20T13:28:46.539Z,10.68
2017-12-20T13:31:14.109Z,9.52
2017-12-20T13:33:42.364Z,10.90
2017-12-20T13:36:10.590Z,10.05
2017-12-20T13:38:38.057Z,11.30
2017-12-20T13:41:05.521Z,10.27
2017-12-20T13:43:33.015Z,11.23
2017-12-20T13:46:01.390Z,9.57
2017-12-20T13:48:28.939Z,9.25
2017-12-20T13:50:56.397Z,9.50
2017-12-20T13:53:23.961Z,10.35
2017-12-20T13:55:51.428Z,9.68
2017-12-20T13:58:19.666Z,10.02
2017-12-20T14:00:47.130Z,8.75
2017-12-20T14:03:14.596Z,10.18
2017-12-20T14:05:42.157Z,10.52
2017-12-20T14:08:09.717Z,10.27
2017-12-20T14:10:37.258Z,9.98
2017-12-20T14:13:04.717Z,11.77
2017-12-20T14:15:32.191Z,10.75
2017-12-20T14:17:59.654Z,10.27
2017-12-20T14:20:27.204Z,11.05
2017-12-20T14:22:54.674Z,10.98
2017-12-20T14:25:22.221Z,9.38
2017-12-20T14:27:49.682Z,8.80
2017-12-20T14:30:17.236Z,8.88
2017-12-20T14:32:44.755Z,9.73
2017-12-20T14:35:12.256Z,8.25
2017-12-20T14:37:39.726Z,7.82
2017-12-20T14:40:07.982Z,8.02
2017-12-20T14:42:36.945Z,9.30
2017-12-20T14:45:04.409Z,8.68
2017-12-20T14:47:31.889Z,8.30
2017-12-20T14:49:59.353Z,9.60
2017-12-20T14:52:26.914Z,9.98
2017-12-20T14:54:54.369Z,10.85
2017-12-20T14:57:21.916Z,9.70
2017-12-20T14:59:49.385Z,10.60
2017-12-20T15:02:16.941Z,9.90
2017-12-20T15:04:44.402Z,10.52
2017-12-20T15:07:11.963Z,10.82
2017-12-20T15:09:39.421Z,10.52
2017-12-20T15:12:07.074Z,10.23
2017-12-20T15:14:34.546Z,11.18
2017-12-20T15:17:02.786Z,11.07
2017-12-20T15:19:30.256Z,12.15
2017-12-20T15:21:57.718Z,13.23
2017-12-20T15:24:25.176Z,11.40
2017-12-20T15:26:52.636Z,12.55
2017-12-20T15:29:20.104Z,11.80
2017-12-20T15:31:48.370Z,12.13
2017-12-20T15:34:15.979Z,13.18
2017-12-20T15:36:43.490Z,13.60
2017-12-20T15:39:11.038Z,14.18
2017-12-20T15:41:39.273Z,13.70
2017-12-20T15:44:06.771Z,12.05
2017-12-20T15:46:34.312Z,12.80
2017-12-20T15:49:01.801Z,12.63
2017-12-20T15:51:29.262Z,16.70
2017-12-20T15:53:57.514Z,12.70
2017-12-20T15:56:24.973Z,13.00
2017-12-20T15:58:52.484Z,13.15
2017-12-20T16:01:19.992Z,15.05
2017-12-20T16:03:47.602Z,13.30
2017-12-20T16:06:15.073Z,13.95
2017-12-20T16:08:42.545Z,13.85
2017-12-20T16:11:10.024Z,13.18
2017-12-20T16:13:37.502Z,14.52
2017-12-20T16:16:05.749Z,14.48
2017-12-20T16:18:33.213Z,14.80
2017-12-20T16:21:00.669Z,14.50
2017-12-20T16:23:28.221Z,16.20
2017-12-20T16:25:55.681Z,14.87
2017-12-20T16:28:23.146Z,15.68
2017-12-20T16:30:50.692Z,14.98
2017-12-20T16:33:18.973Z,14.40
2017-12-20T16:35:46.524Z,15.40
2017-12-20T16:38:14.088Z,15.45
2017-12-20T16:40:41.645Z,15.30
2017-12-20T16:43:09.113Z,14.63
2017-12-20T16:45:36.588Z,16.12
2017-12-20T16:48:04.824Z,14.98
2017-12-20T16:50:32.306Z,13.73
2017-12-20T16:52:59.853Z,14.00
2017-12-20T16:55:27.415Z,14.40
2017-12-20T16:57:54.869Z,14.90
2017-12-20T17:00:22.333Z,14.45
2017-12-20T17:02:49.797Z,13.13
2017-12-20T17:05:17.252Z,14.70
2017-12-20T17:07:45.509Z,16.05
2017-12-20T17:10:12.986Z,15.30
2017-12-20T17:12:41.205Z,15.93
2017-12-20T17:15:08.668Z,15.55
2017-12-20T17:17:36.158Z,16.35
2017-12-20T17:20:04.398Z,15.90
2017-12-20T17:22:31.885Z,20.05
2017-12-20T17:24:59.350Z,17.87
2017-12-20T17:27:26.821Z,14.65
2017-12-20T17:29:55.077Z,16.83
2017-12-20T17:32:22.641Z,15.02
2017-12-20T17:34:50.097Z,17.60
2017-12-20T17:37:17.658Z,16.48
2017-12-20T17:39:45.126Z,15.95
2017-12-20T17:42:13.374Z,18.05
2017-12-20T17:44:40.939Z,16.02
2017-12-20T17:47:08.416Z,16.73
2017-12-20T17:49:35.877Z,17.77
2017-12-20T17:52:03.346Z,16.67
2017-12-20T17:54:30.873Z,15.55
2017-12-20T17:56:58.442Z,15.85
2017-12-20T17:59:25.994Z,17.45
2017-12-20T18:01:53.469Z,20.50
2017-12-20T18:04:21.775Z,16.10
2017-12-20T18:06:49.230Z,17.05
2017-12-20T18:09:16.711Z,19.08
2017-12-20T18:11:44.293Z,17.95
2017-12-20T18:14:11.878Z,18.08
2017-12-20T18:16:39.401Z,18.33
2017-12-20T18:19:06.906Z,17.85
2017-12-20T18:21:34.413Z,19.40
2017-12-20T18:24:01.976Z,18.25
2017-12-20T18:26:29.551Z,17.30
2017-12-20T18:28:57.019Z,18.83
2017-12-20T18:31:25.495Z,19.37
2017-12-20T18:33:52.984Z,18.33
2017-12-20T18:36:20.441Z,18.62
2017-12-20T18:38:47.896Z,18.60
2017-12-20T18:41:15.465Z,19.58
2017-12-20T18:43:42.964Z,20.40
2017-12-20T18:46:10.541Z,19.17
2017-12-20T18:48:38.004Z,19.85
2017-12-20T18:51:06.242Z,17.70
2017-12-20T18:53:33.771Z,18.35
2017-12-20T18:56:01.234Z,18.73
2017-12-20T18:58:28.701Z,21.45
2017-12-20T19:00:56.185Z,18.87
2017-12-20T19:03:23.653Z,19.30
2017-12-20T19:05:51.113Z,19.60
2017-12-20T19:08:19.338Z,18.98
2017-12-20T19:10:46.844Z,18.75
2017-12-20T19:13:15.082Z,18.12
2017-12-20T19:15:42.580Z,19.70
2017-12-20T19:18:10.897Z,21.37
2017-12-20T19:20:38.402Z,19.55
2017-12-20T19:23:05.959Z,20.65
2017-12-20T19:25:33.437Z,19.75
2017-12-20T19:28:01.697Z,26.17
2017-12-20T19:30:29.250Z,19.12
2017-12-20T19:32:56.812Z,17.75
2017-12-20T19:35:24.320Z,20.12
2017-12-20T19:37:51.790Z,21.05
2017-12-20T19:40:19.305Z,22.00
2017-12-20T19:42:47.548Z,21.80
2017-12-20T19:45:15.009Z,19.95
2017-12-20T19:47:42.497Z,18.83
2017-12-20T19:50:10.731Z,21.37
2017-12-20T19:52:38.257Z,19.98
2017-12-20T19:55:05.717Z,21.33
2017-12-20T19:57:33.173Z,22.02
2017-12-20T20:00:00.664Z,20.75
2017-12-20T20:02:28.120Z,19.52
2017-12-20T20:04:55.588Z,19.62
2017-12-20T20:07:23.147Z,20.35
2017-12-20T20:09:50.628Z,19.92
2017-12-20T20:12:18.861Z,18.48
2017-12-20T20:14:46.332Z,19.92
2017-12-20T20:17:13.889Z,21.67
2017-12-20T20:19:41.449Z,20.88
2017-12-20T20:22:08.915Z,19.85
2017-12-20T20:24:36.470Z,21.15
2017-12-20T20:27:03.925Z,20.90
2017-12-20T20:29:31.389Z,19.75
2017-12-20T20:31:58.852Z,20.25
2017-12-20T20:34:27.077Z,20.35
2017-12-20T20:36:54.568Z,20.70
2017-12-20T20:39:22.858Z,19.92
2017-12-20T20:41:51.089Z,20.08
2017-12-20T20:44:18.701Z,20.37
2017-12-20T20:46:46.959Z,22.10
2017-12-20T20:49:14.433Z,22.13
2017-12-20T20:51:42.708Z,20.70
2017-12-20T20:54:10.968Z,21.17
2017-12-20T20:56:38.433Z,19.60
2017-12-20T20:59:06.697Z,19.80
2017-12-20T21:01:34.177Z,19.58
2017-12-20T21:04:02.409Z,21.15
2017-12-20T21:06:29.889Z,23.40
2017-12-20T21:08:57.366Z,20.30
2017-12-20T21:11:25.617Z,18.92
2017-12-20T21:13:54.987Z,20.37
2017-12-20T21:16:22.473Z,21.05
2017-12-20T21:18:49.937Z,21.65
2017-12-20T21:21:17.410Z,19.48
2017-12-20T21:23:47.709Z,22.17
2017-12-20T21:26:15.295Z,20.10
2017-12-20T21:28:44.422Z,20.60
2017-12-20T21:31:11.925Z,21.95
2017-12-20T21:33:39.434Z,19.25
2017-12-20T21:36:06.901Z,20.20
2017-12-20T21:38:34.427Z,20.90
2017-12-20T21:41:02.708Z,20.73
2017-12-20T21:43:30.225Z,19.50
2017-12-20T21:45:57.688Z,20.60
2017-12-20T21:48:25.149Z,20.50
2017-12-20T21:50:53.384Z,21.00
2017-12-20T21:53:20.890Z,20.17
2017-12-20T21:55:48.434Z,18.25
2017-12-20T21:58:15.893Z,21.58
2017-12-20T22:00:43.360Z,20.62
2017-12-20T22:03:11.608Z,20.67
2017-12-20T22:05:40.604Z,19.77
2017-12-20T22:08:08.190Z,20.10
2017-12-20T22:10:36.427Z,18.50
2017-12-20T22:13:03.890Z,20.52
2017-12-20T22:15:31.462Z,17.00
2017-12-20T22:17:59.694Z,19.52
2017-12-20T22:20:27.169Z,18.20
2017-12-20T22:22:54.653Z,20.20
2017-12-20T22:25:22.112Z,20.10
2017-12-20T22:27:49.649Z,17.45
2017-12-20T22:30:17.105Z,18.62
2017-12-20T22:32:44.576Z,18.25
2017-12-20T22:35:12.138Z,17.50
2017-12-20T22:37:39.697Z,19.20
2017-12-20T22:40:07.248Z,16.85
2017-12-20T22:42:34.715Z,17.73
2017-12-20T22:45:02.173Z,18.85
2017-12-20T22:47:29.651Z,17.30
2017-12-20T22:49:57.186Z,18.10
2017-12-20T22:52:24.653Z,19.10
2017-12-20T22:54:52.969Z,17.83
2017-12-20T22:57:20.433Z,17.02
2017-12-20T22:59:47.909Z,16.42
2017-12-20T23:02:15.374Z,18.30
2017-12-20T23:04:43.249Z,17.83
2017-12-20T23:07:10.704Z,17.08
2017-12-20T23:09:38.169Z,14.57
2017-12-20T23:12:05.637Z,16.15
2017-12-20T23:14:33.902Z,16.62
2017-12-20T23:17:01.364Z,15.02
2017-12-20T23:19:28.834Z,17.10
2017-12-20T23:21:57.058Z,15.40
2017-12-20T23:24:24.602Z,16.45
2017-12-20T23:26:52.060Z,15.27
2017-12-20T23:29:19.549Z,14.57
2017-12-20T23:31:47.109Z,15.48
2017-12-20T23:34:14.681Z,14.93
2017-12-20T23:36:42.231Z,13.32
2017-12-20T23:39:09.864Z,13.50
2017-12-20T23:41:37.324Z,13.65
2017-12-20T23:44:04.805Z,12.90
2017-12-20T23:46:32.270Z,13.32
2017-12-20T23:48:59.765Z,13.20
2017-12-20T23:51:27.269Z,12.30
2017-12-20T23:53:54.995Z,11.98
2017-12-20T23:56:22.608Z,12.57
2017-12-20T23:58:50.023Z,11.27
